sensor_id;sensor_type;location;lat;lon;timestamp;P1;durP1;ratioP1;P2;durP2;ratioP2
55015;SDS011;40919;43.236;21.590;2023-06-10T00:01:37;13.05;;;8.25;;
55015;SDS011;40919;43.236;21.590;2023-06-10T00:04:03;13.80;;;8.30;;
55015;SDS011;40919;43.236;21.590;2023-06-10T00:06:29;16.65;;;8.55;;
55015;SDS011;40919;43.236;21.590;2023-06-10T00:09:00;14.27;;;8.23;;
55015;SDS011;40919;43.236;21.590;2023-06-10T00:11:29;11.32;;;7.80;;
55015;SDS011;40919;43.236;21.590;2023-06-10T00:13:58;11.02;;;6.55;;
55015;SDS011;40919;43.236;21.590;2023-06-10T00:16:25;10.32;;;5.82;;
55015;SDS011;40919;43.236;21.590;2023-06-10T00:18:51;8.35;;;5.97;;
55015;SDS011;40919;43.236;21.590;2023-06-10T00:21:17;8.63;;;5.85;;
55015;SDS011;40919;43.236;21.590;2023-06-10T00:23:44;16.10;;;6.10;;
55015;SDS011;40919;43.236;21.590;2023-06-10T00:26:10;10.45;;;5.22;;
55015;SDS011;40919;43.236;21.590;2023-06-10T00:28:35;11.25;;;5.47;;
55015;SDS011;40919;43.236;21.590;2023-06-10T00:31:01;10.68;;;6.38;;
55015;SDS011;40919;43.236;21.590;2023-06-10T00:33:29;8.55;;;6.30;;
55015;SDS011;40919;43.236;21.590;2023-06-10T00:35:55;10.57;;;6.53;;
55015;SDS011;40919;43.236;21.590;2023-06-10T00:38:21;12.25;;;5.95;;
55015;SDS011;40919;43.236;21.590;2023-06-10T00:40:46;8.57;;;5.95;;
55015;SDS011;40919;43.236;21.590;2023-06-10T00:43:12;8.38;;;5.60;;
55015;SDS011;40919;43.236;21.590;2023-06-10T00:45:38;8.35;;;6.07;;
55015;SDS011;40919;43.236;21.590;2023-06-10T00:48:04;9.48;;;5.90;;
55015;SDS011;40919;43.236;21.590;2023-06-10T00:50:30;12.50;;;5.80;;
55015;SDS011;40919;43.236;21.590;2023-06-10T00:52:58;9.48;;;5.53;;
55015;SDS011;40919;43.236;21.590;2023-06-10T00:55:25;10.52;;;5.97;;
55015;SDS011;40919;43.236;21.590;2023-06-10T00:57:52;13.05;;;6.70;;
55015;SDS011;40919;43.236;21.590;2023-06-10T01:00:19;10.05;;;6.00;;
55015;SDS011;40919;43.236;21.590;2023-06-10T01:02:45;10.15;;;6.05;;
55015;SDS011;40919;43.236;21.590;2023-06-10T01:05:11;10.10;;;6.05;;
55015;SDS011;40919;43.236;21.590;2023-06-10T01:07:47;9.15;;;6.60;;
55015;SDS011;40919;43.236;21.590;2023-06-10T01:13:03;8.93;;;6.60;;
55015;SDS011;40919;43.236;21.590;2023-06-10T01:15:33;14.45;;;5.47;;
55015;SDS011;40919;43.236;21.590;2023-06-10T01:18:04;7.35;;;5.32;;
55015;SDS011;40919;43.236;21.590;2023-06-10T01:20:34;11.35;;;6.05;;
55015;SDS011;40919;43.236;21.590;2023-06-10T01:23:02;7.82;;;5.68;;
55015;SDS011;40919;43.236;21.590;2023-06-10T01:25:28;8.65;;;6.22;;
55015;SDS011;40919;43.236;21.590;2023-06-10T01:28:10;8.35;;;5.50;;
55015;SDS011;40919;43.236;21.590;2023-06-10T01:30:59;8.88;;;5.32;;
55015;SDS011;40919;43.236;21.590;2023-06-10T01:33:47;14.93;;;5.45;;
55015;SDS011;40919;43.236;21.590;2023-06-10T01:36:16;8.90;;;5.95;;
55015;SDS011;40919;43.236;21.590;2023-06-10T01:38:44;10.70;;;6.47;;
55015;SDS011;40919;43.236;21.590;2023-06-10T01:41:12;7.88;;;5.38;;
55015;SDS011;40919;43.236;21.590;2023-06-10T01:43:42;13.57;;;6.18;;
55015;SDS011;40919;43.236;21.590;2023-06-10T01:46:08;11.93;;;5.93;;
55015;SDS011;40919;43.236;21.590;2023-06-10T01:48:34;12.25;;;6.68;;
55015;SDS011;40919;43.236;21.590;2023-06-10T01:51:00;7.18;;;5.68;;
55015;SDS011;40919;43.236;21.590;2023-06-10T01:53:26;8.77;;;5.40;;
55015;SDS011;40919;43.236;21.590;2023-06-10T01:55:52;17.17;;;6.22;;
55015;SDS011;40919;43.236;21.590;2023-06-10T01:58:17;9.50;;;6.10;;
55015;SDS011;40919;43.236;21.590;2023-06-10T02:00:43;9.65;;;5.45;;
55015;SDS011;40919;43.236;21.590;2023-06-10T02:03:09;6.85;;;5.10;;
55015;SDS011;40919;43.236;21.590;2023-06-10T02:05:35;6.63;;;5.30;;
55015;SDS011;40919;43.236;21.590;2023-06-10T02:08:00;9.27;;;6.00;;
55015;SDS011;40919;43.236;21.590;2023-06-10T02:10:26;8.40;;;5.70;;
55015;SDS011;40919;43.236;21.590;2023-06-10T02:12:52;8.25;;;5.82;;
55015;SDS011;40919;43.236;21.590;2023-06-10T02:15:18;13.00;;;6.47;;
55015;SDS011;40919;43.236;21.590;2023-06-10T02:17:44;8.95;;;5.65;;
55015;SDS011;40919;43.236;21.590;2023-06-10T02:20:10;13.20;;;6.22;;
55015;SDS011;40919;43.236;21.590;2023-06-10T02:22:37;9.23;;;5.35;;
55015;SDS011;40919;43.236;21.590;2023-06-10T02:25:03;8.82;;;5.88;;
55015;SDS011;40919;43.236;21.590;2023-06-10T02:27:30;10.75;;;5.75;;
55015;SDS011;40919;43.236;21.590;2023-06-10T02:29:56;9.32;;;5.90;;
55015;SDS011;40919;43.236;21.590;2023-06-10T02:32:22;16.38;;;6.70;;
55015;SDS011;40919;43.236;21.590;2023-06-10T02:34:48;8.38;;;5.65;;
55015;SDS011;40919;43.236;21.590;2023-06-10T02:37:15;8.80;;;6.22;;
55015;SDS011;40919;43.236;21.590;2023-06-10T02:39:41;9.52;;;6.40;;
55015;SDS011;40919;43.236;21.590;2023-06-10T02:42:07;11.00;;;6.47;;
55015;SDS011;40919;43.236;21.590;2023-06-10T02:44:33;10.38;;;6.43;;
55015;SDS011;40919;43.236;21.590;2023-06-10T02:46:59;16.35;;;6.72;;
55015;SDS011;40919;43.236;21.590;2023-06-10T02:49:25;14.02;;;7.07;;
55015;SDS011;40919;43.236;21.590;2023-06-10T02:51:53;11.57;;;6.47;;
55015;SDS011;40919;43.236;21.590;2023-06-10T02:54:19;10.63;;;6.28;;
55015;SDS011;40919;43.236;21.590;2023-06-10T02:56:45;10.10;;;6.47;;
55015;SDS011;40919;43.236;21.590;2023-06-10T02:59:13;10.55;;;6.60;;
55015;SDS011;40919;43.236;21.590;2023-06-10T03:01:39;10.13;;;6.70;;
55015;SDS011;40919;43.236;21.590;2023-06-10T03:04:05;9.32;;;6.55;;
55015;SDS011;40919;43.236;21.590;2023-06-10T03:06:32;8.27;;;6.53;;
55015;SDS011;40919;43.236;21.590;2023-06-10T03:09:02;14.90;;;6.05;;
55015;SDS011;40919;43.236;21.590;2023-06-10T03:11:35;8.73;;;6.60;;
55015;SDS011;40919;43.236;21.590;2023-06-10T03:14:01;8.70;;;5.80;;
55015;SDS011;40919;43.236;21.590;2023-06-10T03:16:26;10.15;;;5.78;;
55015;SDS011;40919;43.236;21.590;2023-06-10T03:18:53;10.95;;;6.22;;
55015;SDS011;40919;43.236;21.590;2023-06-10T03:21:19;8.80;;;6.15;;
55015;SDS011;40919;43.236;21.590;2023-06-10T03:23:45;9.10;;;5.90;;
55015;SDS011;40919;43.236;21.590;2023-06-10T03:26:11;9.05;;;6.28;;
55015;SDS011;40919;43.236;21.590;2023-06-10T03:28:39;9.60;;;6.07;;
55015;SDS011;40919;43.236;21.590;2023-06-10T03:31:05;8.85;;;6.18;;
55015;SDS011;40919;43.236;21.590;2023-06-10T03:33:31;11.15;;;6.68;;
55015;SDS011;40919;43.236;21.590;2023-06-10T03:35:57;10.32;;;6.45;;
55015;SDS011;40919;43.236;21.590;2023-06-10T03:38:23;10.88;;;5.68;;
55015;SDS011;40919;43.236;21.590;2023-06-10T03:40:49;12.25;;;6.97;;
55015;SDS011;40919;43.236;21.590;2023-06-10T03:43:15;9.63;;;6.15;;
55015;SDS011;40919;43.236;21.590;2023-06-10T03:45:40;7.90;;;6.80;;
55015;SDS011;40919;43.236;21.590;2023-06-10T03:48:06;8.48;;;6.60;;
55015;SDS011;40919;43.236;21.590;2023-06-10T03:50:33;7.65;;;6.30;;
55015;SDS011;40919;43.236;21.590;2023-06-10T03:52:59;8.15;;;5.70;;
55015;SDS011;40919;43.236;21.590;2023-06-10T03:55:25;10.95;;;6.10;;
55015;SDS011;40919;43.236;21.590;2023-06-10T03:57:51;12.73;;;7.15;;
55015;SDS011;40919;43.236;21.590;2023-06-10T04:00:17;15.10;;;7.88;;
55015;SDS011;40919;43.236;21.590;2023-06-10T04:02:44;10.32;;;7.75;;
55015;SDS011;40919;43.236;21.590;2023-06-10T04:05:17;9.57;;;6.93;;
55015;SDS011;40919;43.236;21.590;2023-06-10T04:07:46;12.80;;;6.65;;
55015;SDS011;40919;43.236;21.590;2023-06-10T04:10:13;6.80;;;5.40;;
55015;SDS011;40919;43.236;21.590;2023-06-10T04:12:39;9.98;;;6.00;;
55015;SDS011;40919;43.236;21.590;2023-06-10T04:15:05;12.05;;;6.53;;
55015;SDS011;40919;43.236;21.590;2023-06-10T04:17:32;11.77;;;5.82;;
55015;SDS011;40919;43.236;21.590;2023-06-10T04:19:57;7.28;;;6.50;;
55015;SDS011;40919;43.236;21.590;2023-06-10T04:22:23;8.10;;;6.18;;
55015;SDS011;40919;43.236;21.590;2023-06-10T04:24:49;8.60;;;6.70;;
55015;SDS011;40919;43.236;21.590;2023-06-10T04:27:15;11.07;;;6.50;;
55015;SDS011;40919;43.236;21.590;2023-06-10T04:29:41;15.55;;;6.90;;
55015;SDS011;40919;43.236;21.590;2023-06-10T04:32:07;9.57;;;6.10;;
55015;SDS011;40919;43.236;21.590;2023-06-10T04:34:33;7.70;;;6.43;;
55015;SDS011;40919;43.236;21.590;2023-06-10T04:36:59;6.25;;;5.30;;
55015;SDS011;40919;43.236;21.590;2023-06-10T04:39:25;9.52;;;5.72;;
55015;SDS011;40919;43.236;21.590;2023-06-10T04:41:51;10.82;;;6.10;;
55015;SDS011;40919;43.236;21.590;2023-06-10T04:44:17;11.55;;;6.13;;
55015;SDS011;40919;43.236;21.590;2023-06-10T04:46:43;12.52;;;6.15;;
55015;SDS011;40919;43.236;21.590;2023-06-10T04:49:10;13.35;;;6.43;;
55015;SDS011;40919;43.236;21.590;2023-06-10T04:51:39;7.20;;;5.60;;
55015;SDS011;40919;43.236;21.590;2023-06-10T04:54:05;8.32;;;5.43;;
55015;SDS011;40919;43.236;21.590;2023-06-10T04:56:31;7.55;;;5.35;;
55015;SDS011;40919;43.236;21.590;2023-06-10T04:58:58;11.50;;;6.05;;
55015;SDS011;40919;43.236;21.590;2023-06-10T05:01:24;10.43;;;5.47;;
55015;SDS011;40919;43.236;21.590;2023-06-10T05:03:50;7.88;;;5.65;;
55015;SDS011;40919;43.236;21.590;2023-06-10T05:06:16;11.63;;;6.45;;
55015;SDS011;40919;43.236;21.590;2023-06-10T05:08:42;10.25;;;6.28;;
55015;SDS011;40919;43.236;21.590;2023-06-10T05:11:08;12.57;;;6.90;;
55015;SDS011;40919;43.236;21.590;2023-06-10T05:13:34;10.40;;;5.80;;
55015;SDS011;40919;43.236;21.590;2023-06-10T05:16:00;9.48;;;5.95;;
55015;SDS011;40919;43.236;21.590;2023-06-10T05:18:26;8.35;;;5.07;;
55015;SDS011;40919;43.236;21.590;2023-06-10T05:20:52;12.07;;;5.95;;
55015;SDS011;40919;43.236;21.590;2023-06-10T05:23:19;10.90;;;5.93;;
55015;SDS011;40919;43.236;21.590;2023-06-10T05:25:45;11.05;;;5.05;;
55015;SDS011;40919;43.236;21.590;2023-06-10T05:28:11;7.78;;;5.32;;
55015;SDS011;40919;43.236;21.590;2023-06-10T05:30:37;10.23;;;6.22;;
55015;SDS011;40919;43.236;21.590;2023-06-10T05:33:03;7.18;;;5.55;;
55015;SDS011;40919;43.236;21.590;2023-06-10T05:35:30;8.80;;;5.95;;
55015;SDS011;40919;43.236;21.590;2023-06-10T05:37:56;12.02;;;6.30;;
55015;SDS011;40919;43.236;21.590;2023-06-10T05:40:22;9.88;;;6.53;;
55015;SDS011;40919;43.236;21.590;2023-06-10T05:42:48;8.85;;;6.55;;
55015;SDS011;40919;43.236;21.590;2023-06-10T05:45:14;11.35;;;6.40;;
55015;SDS011;40919;43.236;21.590;2023-06-10T05:47:40;8.10;;;6.43;;
55015;SDS011;40919;43.236;21.590;2023-06-10T05:50:06;9.98;;;6.88;;
55015;SDS011;40919;43.236;21.590;2023-06-10T05:52:33;15.57;;;6.32;;
55015;SDS011;40919;43.236;21.590;2023-06-10T05:55:00;14.30;;;6.95;;
55015;SDS011;40919;43.236;21.590;2023-06-10T05:57:25;11.20;;;6.15;;
55015;SDS011;40919;43.236;21.590;2023-06-10T05:59:51;8.18;;;6.22;;
55015;SDS011;40919;43.236;21.590;2023-06-10T06:02:17;9.43;;;6.43;;
55015;SDS011;40919;43.236;21.590;2023-06-10T06:04:43;9.30;;;6.30;;
55015;SDS011;40919;43.236;21.590;2023-06-10T06:07:09;9.13;;;5.28;;
55015;SDS011;40919;43.236;21.590;2023-06-10T06:09:35;7.82;;;6.03;;
55015;SDS011;40919;43.236;21.590;2023-06-10T06:12:01;7.95;;;5.28;;
55015;SDS011;40919;43.236;21.590;2023-06-10T06:14:30;11.05;;;5.57;;
55015;SDS011;40919;43.236;21.590;2023-06-10T06:16:57;10.70;;;5.57;;
55015;SDS011;40919;43.236;21.590;2023-06-10T06:19:22;8.20;;;5.95;;
55015;SDS011;40919;43.236;21.590;2023-06-10T06:21:48;8.82;;;5.50;;
55015;SDS011;40919;43.236;21.590;2023-06-10T06:24:15;11.80;;;5.70;;
55015;SDS011;40919;43.236;21.590;2023-06-10T06:26:41;8.52;;;5.70;;
55015;SDS011;40919;43.236;21.590;2023-06-10T06:29:07;7.18;;;5.70;;
55015;SDS011;40919;43.236;21.590;2023-06-10T06:31:33;9.38;;;5.03;;
55015;SDS011;40919;43.236;21.590;2023-06-10T06:33:59;8.07;;;5.57;;
55015;SDS011;40919;43.236;21.590;2023-06-10T06:36:24;9.80;;;6.47;;
55015;SDS011;40919;43.236;21.590;2023-06-10T06:38:50;11.40;;;6.20;;
55015;SDS011;40919;43.236;21.590;2023-06-10T06:41:17;9.82;;;5.85;;
55015;SDS011;40919;43.236;21.590;2023-06-10T06:43:42;9.32;;;4.78;;
55015;SDS011;40919;43.236;21.590;2023-06-10T06:46:08;8.52;;;4.60;;
55015;SDS011;40919;43.236;21.590;2023-06-10T06:48:34;8.73;;;5.05;;
55015;SDS011;40919;43.236;21.590;2023-06-10T06:51:00;10.82;;;6.13;;
55015;SDS011;40919;43.236;21.590;2023-06-10T06:53:26;8.25;;;6.28;;
55015;SDS011;40919;43.236;21.590;2023-06-10T06:55:52;10.35;;;6.10;;
55015;SDS011;40919;43.236;21.590;2023-06-10T06:58:18;10.10;;;5.40;;
55015;SDS011;40919;43.236;21.590;2023-06-10T07:00:44;8.18;;;5.30;;
55015;SDS011;40919;43.236;21.590;2023-06-10T07:03:10;7.60;;;5.22;;
55015;SDS011;40919;43.236;21.590;2023-06-10T07:05:36;7.07;;;4.97;;
55015;SDS011;40919;43.236;21.590;2023-06-10T07:08:02;7.72;;;4.90;;
55015;SDS011;40919;43.236;21.590;2023-06-10T07:10:28;8.32;;;5.07;;
55015;SDS011;40919;43.236;21.590;2023-06-10T07:12:54;6.78;;;4.60;;
55015;SDS011;40919;43.236;21.590;2023-06-10T07:15:20;9.52;;;5.70;;
55015;SDS011;40919;43.236;21.590;2023-06-10T07:17:46;8.32;;;5.35;;
55015;SDS011;40919;43.236;21.590;2023-06-10T07:20:12;11.70;;;5.47;;
55015;SDS011;40919;43.236;21.590;2023-06-10T07:22:39;11.10;;;4.85;;
55015;SDS011;40919;43.236;21.590;2023-06-10T07:25:06;7.25;;;5.10;;
55015;SDS011;40919;43.236;21.590;2023-06-10T07:27:32;9.00;;;4.95;;
55015;SDS011;40919;43.236;21.590;2023-06-10T07:29:57;9.50;;;5.47;;
55015;SDS011;40919;43.236;21.590;2023-06-10T07:32:25;8.98;;;5.13;;
55015;SDS011;40919;43.236;21.590;2023-06-10T07:34:51;9.40;;;5.30;;
55015;SDS011;40919;43.236;21.590;2023-06-10T07:37:17;8.85;;;4.97;;
55015;SDS011;40919;43.236;21.590;2023-06-10T07:39:44;9.77;;;4.57;;
55015;SDS011;40919;43.236;21.590;2023-06-10T07:42:10;12.02;;;4.93;;
55015;SDS011;40919;43.236;21.590;2023-06-10T07:44:36;7.63;;;4.57;;
55015;SDS011;40919;43.236;21.590;2023-06-10T07:47:02;6.95;;;4.18;;
55015;SDS011;40919;43.236;21.590;2023-06-10T07:49:28;7.80;;;4.40;;
55015;SDS011;40919;43.236;21.590;2023-06-10T07:51:54;7.13;;;4.05;;
55015;SDS011;40919;43.236;21.590;2023-06-10T07:54:20;7.95;;;4.68;;
55015;SDS011;40919;43.236;21.590;2023-06-10T07:56:46;5.93;;;4.85;;
55015;SDS011;40919;43.236;21.590;2023-06-10T07:59:13;6.05;;;4.40;;
55015;SDS011;40919;43.236;21.590;2023-06-10T08:01:39;9.05;;;4.95;;
55015;SDS011;40919;43.236;21.590;2023-06-10T08:04:05;7.07;;;4.32;;
55015;SDS011;40919;43.236;21.590;2023-06-10T08:06:32;6.55;;;5.03;;
55015;SDS011;40919;43.236;21.590;2023-06-10T08:08:57;6.40;;;4.32;;
55015;SDS011;40919;43.236;21.590;2023-06-10T08:11:24;7.53;;;5.13;;
55015;SDS011;40919;43.236;21.590;2023-06-10T08:13:53;5.95;;;5.28;;
55015;SDS011;40919;43.236;21.590;2023-06-10T08:16:19;6.15;;;5.15;;
55015;SDS011;40919;43.236;21.590;2023-06-10T08:18:45;7.45;;;5.25;;
55015;SDS011;40919;43.236;21.590;2023-06-10T08:21:11;7.25;;;5.32;;
55015;SDS011;40919;43.236;21.590;2023-06-10T08:23:36;7.22;;;5.18;;
55015;SDS011;40919;43.236;21.590;2023-06-10T08:26:02;6.32;;;5.47;;
55015;SDS011;40919;43.236;21.590;2023-06-10T08:28:28;8.93;;;5.85;;
55015;SDS011;40919;43.236;21.590;2023-06-10T08:30:54;9.95;;;6.10;;
55015;SDS011;40919;43.236;21.590;2023-06-10T08:33:20;9.63;;;6.25;;
55015;SDS011;40919;43.236;21.590;2023-06-10T08:35:45;8.88;;;6.60;;
55015;SDS011;40919;43.236;21.590;2023-06-10T08:38:11;8.77;;;5.60;;
55015;SDS011;40919;43.236;21.590;2023-06-10T08:40:37;6.78;;;6.03;;
55015;SDS011;40919;43.236;21.590;2023-06-10T08:43:06;10.88;;;6.47;;
55015;SDS011;40919;43.236;21.590;2023-06-10T08:45:36;7.57;;;5.25;;
55015;SDS011;40919;43.236;21.590;2023-06-10T08:48:03;6.00;;;5.40;;
55015;SDS011;40919;43.236;21.590;2023-06-10T08:50:37;8.57;;;6.05;;
55015;SDS011;40919;43.236;21.590;2023-06-10T08:53:06;5.88;;;5.25;;
55015;SDS011;40919;43.236;21.590;2023-06-10T08:55:33;6.65;;;5.90;;
55015;SDS011;40919;43.236;21.590;2023-06-10T08:58:02;6.72;;;6.00;;
55015;SDS011;40919;43.236;21.590;2023-06-10T09:00:29;6.65;;;5.53;;
55015;SDS011;40919;43.236;21.590;2023-06-10T09:02:56;11.73;;;6.30;;
55015;SDS011;40919;43.236;21.590;2023-06-10T09:05:23;9.27;;;6.57;;
55015;SDS011;40919;43.236;21.590;2023-06-10T09:07:50;8.10;;;6.38;;
55015;SDS011;40919;43.236;21.590;2023-06-10T09:10:17;8.60;;;6.63;;
55015;SDS011;40919;43.236;21.590;2023-06-10T09:12:43;8.35;;;6.97;;
55015;SDS011;40919;43.236;21.590;2023-06-10T09:15:09;7.97;;;6.65;;
55015;SDS011;40919;43.236;21.590;2023-06-10T09:17:37;11.35;;;6.50;;
55015;SDS011;40919;43.236;21.590;2023-06-10T09:20:05;9.82;;;7.20;;
55015;SDS011;40919;43.236;21.590;2023-06-10T09:22:32;8.77;;;5.95;;
55015;SDS011;40919;43.236;21.590;2023-06-10T09:25:05;8.00;;;6.45;;
55015;SDS011;40919;43.236;21.590;2023-06-10T09:27:43;9.88;;;6.75;;
55015;SDS011;40919;43.236;21.590;2023-06-10T09:30:27;7.07;;;6.07;;
55015;SDS011;40919;43.236;21.590;2023-06-10T09:32:54;9.48;;;6.50;;
55015;SDS011;40919;43.236;21.590;2023-06-10T09:35:24;7.82;;;7.03;;
55015;SDS011;40919;43.236;21.590;2023-06-10T09:37:52;9.43;;;7.93;;
55015;SDS011;40919;43.236;21.590;2023-06-10T09:40:18;13.43;;;8.40;;
55015;SDS011;40919;43.236;21.590;2023-06-10T09:42:44;10.15;;;9.02;;
55015;SDS011;40919;43.236;21.590;2023-06-10T09:45:10;11.45;;;8.95;;
55015;SDS011;40919;43.236;21.590;2023-06-10T09:47:36;11.02;;;9.02;;
55015;SDS011;40919;43.236;21.590;2023-06-10T09:50:02;9.95;;;8.95;;
55015;SDS011;40919;43.236;21.590;2023-06-10T09:52:28;10.73;;;9.63;;
55015;SDS011;40919;43.236;21.590;2023-06-10T09:54:59;11.85;;;10.65;;
55015;SDS011;40919;43.236;21.590;2023-06-10T09:57:26;10.68;;;9.43;;
55015;SDS011;40919;43.236;21.590;2023-06-10T09:59:57;11.53;;;9.53;;
55015;SDS011;40919;43.236;21.590;2023-06-10T10:02:23;10.20;;;9.20;;
55015;SDS011;40919;43.236;21.590;2023-06-10T10:04:49;11.07;;;10.00;;
55015;SDS011;40919;43.236;21.590;2023-06-10T10:07:15;11.68;;;10.50;;
55015;SDS011;40919;43.236;21.590;2023-06-10T10:09:41;11.73;;;10.57;;
55015;SDS011;40919;43.236;21.590;2023-06-10T10:12:11;12.05;;;10.85;;
55015;SDS011;40919;43.236;21.590;2023-06-10T10:14:39;11.52;;;10.40;;
55015;SDS011;40919;43.236;21.590;2023-06-10T10:17:11;11.05;;;9.95;;
55015;SDS011;40919;43.236;21.590;2023-06-10T10:19:46;11.27;;;10.10;;
55015;SDS011;40919;43.236;21.590;2023-06-10T10:22:25;12.48;;;10.40;;
55015;SDS011;40919;43.236;21.590;2023-06-10T10:24:57;11.32;;;10.15;;
55015;SDS011;40919;43.236;21.590;2023-06-10T10:27:28;11.02;;;9.93;;
55015;SDS011;40919;43.236;21.590;2023-06-10T10:30:14;10.65;;;9.65;;
55015;SDS011;40919;43.236;21.590;2023-06-10T10:32:47;11.00;;;9.90;;
55015;SDS011;40919;43.236;21.590;2023-06-10T10:35:30;11.15;;;10.05;;
55015;SDS011;40919;43.236;21.590;2023-06-10T10:37:58;9.70;;;8.60;;
55015;SDS011;40919;43.236;21.590;2023-06-10T10:40:24;11.80;;;9.50;;
55015;SDS011;40919;43.236;21.590;2023-06-10T10:42:55;12.60;;;9.63;;
55015;SDS011;40919;43.236;21.590;2023-06-10T10:45:21;9.77;;;8.25;;
55015;SDS011;40919;43.236;21.590;2023-06-10T10:47:51;10.30;;;9.30;;
55015;SDS011;40919;43.236;21.590;2023-06-10T10:50:19;11.15;;;9.57;;
55015;SDS011;40919;43.236;21.590;2023-06-10T10:53:02;9.27;;;8.38;;
55015;SDS011;40919;43.236;21.590;2023-06-10T10:55:29;8.55;;;7.07;;
55015;SDS011;40919;43.236;21.590;2023-06-10T11:00:31;9.95;;;8.48;;
55015;SDS011;40919;43.236;21.590;2023-06-10T11:03:13;8.82;;;7.97;;
55015;SDS011;40919;43.236;21.590;2023-06-10T11:05:43;8.48;;;7.53;;
55015;SDS011;40919;43.236;21.590;2023-06-10T11:08:14;8.30;;;7.40;;
55015;SDS011;40919;43.236;21.590;2023-06-10T11:11:00;9.15;;;8.25;;
55015;SDS011;40919;43.236;21.590;2023-06-10T11:14:07;10.50;;;9.45;;
55015;SDS011;40919;43.236;21.590;2023-06-10T11:16:38;10.02;;;8.93;;
55015;SDS011;40919;43.236;21.590;2023-06-10T11:19:06;9.23;;;8.30;;
55015;SDS011;40919;43.236;21.590;2023-06-10T11:21:32;9.65;;;8.70;;
55015;SDS011;40919;43.236;21.590;2023-06-10T11:24:21;9.70;;;8.68;;
55015;SDS011;40919;43.236;21.590;2023-06-10T11:26:46;10.25;;;9.25;;
55015;SDS011;40919;43.236;21.590;2023-06-10T11:29:12;11.02;;;9.85;;
55015;SDS011;40919;43.236;21.590;2023-06-10T11:31:41;11.30;;;10.20;;
55015;SDS011;40919;43.236;21.590;2023-06-10T11:34:09;10.55;;;9.55;;
55015;SDS011;40919;43.236;21.590;2023-06-10T11:36:40;11.02;;;10.00;;
55015;SDS011;40919;43.236;21.590;2023-06-10T11:39:10;11.32;;;9.82;;
55015;SDS011;40919;43.236;21.590;2023-06-10T11:41:37;11.25;;;10.15;;
55015;SDS011;40919;43.236;21.590;2023-06-10T11:44:05;11.60;;;10.50;;
55015;SDS011;40919;43.236;21.590;2023-06-10T11:46:34;11.82;;;10.65;;
55015;SDS011;40919;43.236;21.590;2023-06-10T11:49:00;12.13;;;10.88;;
55015;SDS011;40919;43.236;21.590;2023-06-10T11:51:37;11.27;;;9.43;;
55015;SDS011;40919;43.236;21.590;2023-06-10T11:54:05;11.15;;;10.07;;
55015;SDS011;40919;43.236;21.590;2023-06-10T11:56:33;11.50;;;10.40;;
55015;SDS011;40919;43.236;21.590;2023-06-10T11:59:00;12.25;;;11.07;;
55015;SDS011;40919;43.236;21.590;2023-06-10T12:01:31;10.48;;;9.48;;
55015;SDS011;40919;43.236;21.590;2023-06-10T12:04:17;10.75;;;9.30;;
55015;SDS011;40919;43.236;21.590;2023-06-10T12:06:47;11.40;;;10.40;;
55015;SDS011;40919;43.236;21.590;2023-06-10T12:09:23;12.73;;;11.52;;
55015;SDS011;40919;43.236;21.590;2023-06-10T12:11:55;13.65;;;12.18;;
55015;SDS011;40919;43.236;21.590;2023-06-10T12:17:22;12.88;;;11.75;;
55015;SDS011;40919;43.236;21.590;2023-06-10T12:20:09;13.60;;;11.85;;
55015;SDS011;40919;43.236;21.590;2023-06-10T12:22:49;13.82;;;12.45;;
55015;SDS011;40919;43.236;21.590;2023-06-10T12:25:15;11.00;;;9.90;;
55015;SDS011;40919;43.236;21.590;2023-06-10T12:27:50;9.75;;;8.85;;
55015;SDS011;40919;43.236;21.590;2023-06-10T12:30:21;9.13;;;8.15;;
55015;SDS011;40919;43.236;21.590;2023-06-10T12:32:49;8.43;;;7.63;;
55015;SDS011;40919;43.236;21.590;2023-06-10T12:35:17;7.78;;;7.07;;
55015;SDS011;40919;43.236;21.590;2023-06-10T12:40:33;8.52;;;7.63;;
55015;SDS011;40919;43.236;21.590;2023-06-10T12:43:01;8.27;;;7.47;;
55015;SDS011;40919;43.236;21.590;2023-06-10T12:45:28;8.52;;;7.60;;
55015;SDS011;40919;43.236;21.590;2023-06-10T12:50:40;7.63;;;6.93;;
55015;SDS011;40919;43.236;21.590;2023-06-10T12:53:07;8.35;;;6.85;;
55015;SDS011;40919;43.236;21.590;2023-06-10T12:55:34;7.88;;;7.07;;
55015;SDS011;40919;43.236;21.590;2023-06-10T12:58:00;7.30;;;6.50;;
55015;SDS011;40919;43.236;21.590;2023-06-10T13:00:26;8.15;;;6.57;;
55015;SDS011;40919;43.236;21.590;2023-06-10T13:02:55;7.05;;;6.35;;
55015;SDS011;40919;43.236;21.590;2023-06-10T13:05:21;7.55;;;6.75;;
55015;SDS011;40919;43.236;21.590;2023-06-10T13:07:47;7.90;;;7.10;;
55015;SDS011;40919;43.236;21.590;2023-06-10T13:10:14;6.90;;;6.20;;
55015;SDS011;40919;43.236;21.590;2023-06-10T13:12:41;7.05;;;6.35;;
55015;SDS011;40919;43.236;21.590;2023-06-10T13:15:08;8.43;;;7.63;;
55015;SDS011;40919;43.236;21.590;2023-06-10T13:17:34;8.70;;;7.80;;
55015;SDS011;40919;43.236;21.590;2023-06-10T13:20:01;10.80;;;8.32;;
55015;SDS011;40919;43.236;21.590;2023-06-10T13:22:29;10.68;;;9.57;;
55015;SDS011;40919;43.236;21.590;2023-06-10T13:24:57;10.85;;;9.73;;
55015;SDS011;40919;43.236;21.590;2023-06-10T13:27:24;9.68;;;8.77;;
55015;SDS011;40919;43.236;21.590;2023-06-10T13:29:50;11.85;;;10.65;;
55015;SDS011;40919;43.236;21.590;2023-06-10T13:32:16;8.77;;;7.88;;
55015;SDS011;40919;43.236;21.590;2023-06-10T13:34:41;9.57;;;8.65;;
55015;SDS011;40919;43.236;21.590;2023-06-10T13:37:07;19.00;;;9.88;;
55015;SDS011;40919;43.236;21.590;2023-06-10T13:39:33;10.82;;;9.82;;
55015;SDS011;40919;43.236;21.590;2023-06-10T13:41:59;10.45;;;8.70;;
55015;SDS011;40919;43.236;21.590;2023-06-10T13:44:25;13.45;;;8.98;;
55015;SDS011;40919;43.236;21.590;2023-06-10T13:46:50;10.32;;;9.32;;
55015;SDS011;40919;43.236;21.590;2023-06-10T13:49:16;11.73;;;10.60;;
55015;SDS011;40919;43.236;21.590;2023-06-10T13:51:42;11.23;;;9.23;;
55015;SDS011;40919;43.236;21.590;2023-06-10T13:54:08;10.73;;;9.63;;
55015;SDS011;40919;43.236;21.590;2023-06-10T13:56:34;10.45;;;8.77;;
55015;SDS011;40919;43.236;21.590;2023-06-10T13:59:03;9.73;;;8.82;;
55015;SDS011;40919;43.236;21.590;2023-06-10T14:01:29;11.68;;;9.85;;
55015;SDS011;40919;43.236;21.590;2023-06-10T14:03:54;11.30;;;10.20;;
55015;SDS011;40919;43.236;21.590;2023-06-10T14:06:20;9.68;;;8.68;;
55015;SDS011;40919;43.236;21.590;2023-06-10T14:08:47;10.98;;;9.98;;
55015;SDS011;40919;43.236;21.590;2023-06-10T14:11:13;9.93;;;9.02;;
55015;SDS011;40919;43.236;21.590;2023-06-10T14:13:39;11.73;;;8.23;;
55015;SDS011;40919;43.236;21.590;2023-06-10T14:16:05;10.45;;;8.80;;
55015;SDS011;40919;43.236;21.590;2023-06-10T14:18:31;10.38;;;8.70;;
55015;SDS011;40919;43.236;21.590;2023-06-10T14:20:57;9.05;;;7.85;;
55015;SDS011;40919;43.236;21.590;2023-06-10T14:23:23;12.65;;;8.10;;
55015;SDS011;40919;43.236;21.590;2023-06-10T14:25:51;8.20;;;7.35;;
55015;SDS011;40919;43.236;21.590;2023-06-10T14:28:17;8.93;;;6.82;;
55015;SDS011;40919;43.236;21.590;2023-06-10T14:30:43;8.48;;;7.63;;
55015;SDS011;40919;43.236;21.590;2023-06-10T14:33:09;8.20;;;7.40;;
55015;SDS011;40919;43.236;21.590;2023-06-10T14:35:35;7.28;;;6.50;;
55015;SDS011;40919;43.236;21.590;2023-06-10T14:38:00;9.13;;;5.80;;
55015;SDS011;40919;43.236;21.590;2023-06-10T14:40:26;6.97;;;6.28;;
55015;SDS011;40919;43.236;21.590;2023-06-10T14:42:54;5.97;;;5.32;;
55015;SDS011;40919;43.236;21.590;2023-06-10T14:45:20;7.05;;;5.97;;